createdAt,value
2023-10-18T00:01:14.200Z,2.77
2023-10-18T00:03:44.851Z,3.33
2023-10-18T00:06:24.687Z,6.30
2023-10-18T00:08:59.385Z,3.33
2023-10-18T00:11:31.030Z,2.60
2023-10-18T00:14:02.642Z,3.07
2023-10-18T00:16:32.994Z,2.70
2023-10-18T00:19:03.601Z,3.50
2023-10-18T00:21:36.938Z,2.47
2023-10-18T00:24:08.234Z,4.13
2023-10-18T00:26:38.505Z,5.27
2023-10-18T00:29:08.846Z,3.63
2023-10-18T00:31:39.225Z,4.90
2023-10-18T00:34:12.462Z,3.27
2023-10-18T00:36:43.010Z,3.03
2023-10-18T00:39:21.258Z,4.63
2023-10-18T00:41:53.662Z,6.17
2023-10-18T00:44:25.405Z,3.43
2023-10-18T00:46:58.674Z,3.47
2023-10-18T00:49:29.428Z,2.67
2023-10-18T00:52:02.662Z,3.80
2023-10-18T00:54:33.984Z,3.77
2023-10-18T00:57:04.444Z,4.30
2023-10-18T00:59:39.035Z,3.70
2023-10-18T01:02:12.565Z,4.90
2023-10-18T01:04:43.497Z,3.07
2023-10-18T01:07:17.041Z,3.10
2023-10-18T01:09:50.220Z,5.80
2023-10-18T01:12:20.811Z,4.53
2023-10-18T01:14:52.417Z,3.40
2023-10-18T01:17:22.936Z,3.03
2023-10-18T01:19:54.489Z,3.60
2023-10-18T01:22:27.373Z,3.20
2023-10-18T01:25:00.800Z,3.97
2023-10-18T01:27:31.058Z,5.80
2023-10-18T01:30:01.318Z,5.23
2023-10-18T01:32:32.010Z,4.67
2023-10-18T01:35:06.379Z,3.27
2023-10-18T01:37:37.162Z,3.27
2023-10-18T01:40:32.070Z,4.07
2023-10-18T01:43:02.384Z,3.53
2023-10-18T01:45:38.165Z,4.03
2023-10-18T01:48:15.973Z,4.53
2023-10-18T01:50:47.245Z,4.37
2023-10-18T01:53:20.700Z,5.70
2023-10-18T01:55:55.363Z,4.17
2023-10-18T01:58:28.028Z,5.30
2023-10-18T02:01:02.089Z,4.03
2023-10-18T02:03:35.492Z,4.07
2023-10-18T02:06:08.140Z,4.10
2023-10-18T02:08:38.509Z,3.33
2023-10-18T02:11:13.602Z,3.77
2023-10-18T02:13:44.133Z,4.03
2023-10-18T02:16:17.209Z,4.60
2023-10-18T02:18:51.980Z,3.77
2023-10-18T02:21:24.504Z,3.90
2023-10-18T02:23:54.980Z,3.53
2023-10-18T02:26:35.746Z,5.87
2023-10-18T02:29:14.033Z,5.40
2023-10-18T02:31:45.126Z,3.50
2023-10-18T02:34:28.894Z,3.87
2023-10-18T02:37:02.827Z,6.53
2023-10-18T02:39:34.446Z,4.67
2023-10-18T02:42:10.640Z,4.70
2023-10-18T02:44:44.225Z,3.70
2023-10-18T02:47:18.319Z,5.03
2023-10-18T02:49:52.895Z,4.03
2023-10-18T02:52:28.240Z,7.83
2023-10-18T02:54:58.743Z,5.40
2023-10-18T02:57:35.432Z,4.37
2023-10-18T03:00:12.399Z,4.70
2023-10-18T03:02:42.964Z,4.40
2023-10-18T03:05:14.118Z,4.37
2023-10-18T03:07:44.479Z,4.97
2023-10-18T03:10:22.234Z,4.43
2023-10-18T03:12:56.314Z,4.13
2023-10-18T03:15:27.484Z,6.10
2023-10-18T03:17:57.845Z,7.17
2023-10-18T03:20:28.510Z,5.63
2023-10-18T03:23:03.728Z,5.30
2023-10-18T03:25:36.113Z,5.73
2023-10-18T03:28:14.942Z,4.60
2023-10-18T03:30:48.492Z,4.50
2023-10-18T03:33:20.869Z,5.10
2023-10-18T03:36:20.018Z,7.60
2023-10-18T03:39:00.777Z,4.23
2023-10-18T03:41:34.524Z,5.13
2023-10-18T03:44:10.775Z,5.33
2023-10-18T03:46:51.118Z,4.93
2023-10-18T03:49:38.087Z,4.77
2023-10-18T03:52:20.511Z,4.50
2023-10-18T03:55:06.107Z,5.90
2023-10-18T03:57:43.120Z,5.80
2023-10-18T04:00:38.852Z,5.50
2023-10-18T04:03:14.301Z,8.30
2023-10-18T04:05:46.444Z,5.93
2023-10-18T04:08:19.088Z,5.47
2023-10-18T04:11:02.297Z,9.40
2023-10-18T04:13:33.429Z,9.20
2023-10-18T04:16:11.647Z,5.63
2023-10-18T04:18:43.473Z,5.30
2023-10-18T04:21:17.264Z,7.03
2023-10-18T04:23:51.191Z,5.80
2023-10-18T04:26:22.818Z,5.93
2023-10-18T04:28:59.356Z,7.97
2023-10-18T04:31:31.453Z,6.80
2023-10-18T04:34:01.824Z,7.33
2023-10-18T04:36:35.074Z,5.83
2023-10-18T04:39:09.456Z,6.90
2023-10-18T04:41:39.927Z,7.23
2023-10-18T04:44:19.702Z,6.47
2023-10-18T04:47:01.251Z,6.30
2023-10-18T04:49:40.951Z,6.80
2023-10-18T04:52:10.170Z,6.07
2023-10-18T04:54:43.076Z,6.60
2023-10-18T04:57:12.432Z,5.90
2023-10-18T04:59:54.079Z,6.40
2023-10-18T05:02:28.046Z,7.67
2023-10-18T05:04:58.772Z,6.27
2023-10-18T05:07:41.937Z,5.73
2023-10-18T05:10:19.424Z,6.10
2023-10-18T05:12:54.791Z,7.43
2023-10-18T05:15:33.877Z,6.23
2023-10-18T05:18:16.759Z,7.57
2023-10-18T05:20:56.881Z,6.77
2023-10-18T05:23:28.096Z,8.87
2023-10-18T05:26:10.922Z,7.80
2023-10-18T05:28:51.114Z,8.20
2023-10-18T05:31:45.022Z,7.17
2023-10-18T05:34:23.807Z,7.70
2023-10-18T05:37:14.733Z,6.50
2023-10-18T05:40:13.315Z,6.90
2023-10-18T05:42:48.397Z,9.53
2023-10-18T05:45:22.063Z,7.77
2023-10-18T05:47:56.090Z,8.77
2023-10-18T05:50:29.085Z,7.60
2023-10-18T05:53:09.206Z,9.13
2023-10-18T05:55:40.101Z,8.10
2023-10-18T05:58:10.499Z,10.33
2023-10-18T06:00:42.631Z,7.13
2023-10-18T06:03:13.220Z,7.37
2023-10-18T06:05:47.812Z,8.10
2023-10-18T06:08:18.085Z,8.10
2023-10-18T06:10:50.608Z,6.97
2023-10-18T06:13:29.386Z,9.47
2023-10-18T06:16:00.211Z,9.13
2023-10-18T06:18:38.699Z,9.63
2023-10-18T06:21:13.895Z,8.47
2023-10-18T06:23:44.126Z,8.87
2023-10-18T06:26:32.413Z,7.60
2023-10-18T06:29:10.035Z,7.40
2023-10-18T06:31:45.384Z,8.53
2023-10-18T06:34:19.578Z,7.27
2023-10-18T06:36:54.061Z,8.20
2023-10-18T06:39:30.024Z,7.83
2023-10-18T06:42:00.547Z,9.03
2023-10-18T06:44:32.367Z,8.17
2023-10-18T06:47:07.621Z,6.77
2023-10-18T06:49:38.000Z,8.00
2023-10-18T06:52:16.392Z,8.50
2023-10-18T06:54:48.134Z,7.60
2023-10-18T06:57:28.388Z,8.80
2023-10-18T06:59:59.623Z,10.03
2023-10-18T07:02:31.678Z,7.33
2023-10-18T07:05:02.344Z,6.57
2023-10-18T07:07:35.460Z,7.90
2023-10-18T07:10:07.298Z,7.17
2023-10-18T07:12:51.910Z,8.80
2023-10-18T07:15:24.814Z,7.50
2023-10-18T07:17:57.530Z,7.90
2023-10-18T07:20:33.926Z,6.60
2023-10-18T07:23:11.687Z,7.73
2023-10-18T07:25:43.481Z,8.40
2023-10-18T07:31:36.328Z,6.80
2023-10-18T07:34:09.550Z,7.40
2023-10-18T07:36:47.233Z,7.90
2023-10-18T07:39:25.554Z,7.35
2023-10-18T07:41:56.848Z,7.80
2023-10-18T07:44:27.496Z,5.90
2023-10-18T07:46:57.780Z,5.68
2023-10-18T07:49:28.119Z,7.28
2023-10-18T07:52:00.648Z,6.80
2023-10-18T07:54:36.667Z,6.45
2023-10-18T07:57:12.773Z,11.15
2023-10-18T07:59:47.886Z,8.98
2023-10-18T08:02:25.083Z,9.45
2023-10-18T08:05:01.946Z,9.65
2023-10-18T08:07:34.785Z,8.05
2023-10-18T08:10:10.139Z,8.63
2023-10-18T08:12:41.149Z,8.68
2023-10-18T08:15:17.752Z,7.05
2023-10-18T08:17:48.113Z,6.93
2023-10-18T08:20:56.543Z,10.38
2023-10-18T08:23:40.001Z,9.27
2023-10-18T08:26:13.933Z,8.95
2023-10-18T08:28:47.398Z,8.95
2023-10-18T08:31:36.781Z,12.00
2023-10-18T08:34:12.774Z,7.80
2023-10-18T08:36:45.257Z,8.10
2023-10-18T08:39:17.204Z,7.75
2023-10-18T08:42:06.112Z,9.50
2023-10-18T08:44:39.443Z,7.10
2023-10-18T08:47:18.624Z,8.73
2023-10-18T08:49:55.622Z,8.10
2023-10-18T08:52:29.662Z,6.75
2023-10-18T08:55:22.263Z,8.05
2023-10-18T08:57:59.702Z,9.30
2023-10-18T09:00:45.828Z,6.35
2023-10-18T09:03:18.152Z,10.15
2023-10-18T09:05:49.373Z,8.75
2023-10-18T09:08:27.861Z,7.82
2023-10-18T09:10:56.798Z,8.23
2023-10-18T09:13:43.010Z,7.82
2023-10-18T09:16:13.879Z,9.90
2023-10-18T09:18:44.238Z,8.93
2023-10-18T09:21:21.538Z,7.00
2023-10-18T09:24:01.615Z,8.68
2023-10-18T09:26:37.273Z,6.85
2023-10-18T09:29:10.424Z,7.25
2023-10-18T09:31:54.879Z,8.00
2023-10-18T09:34:35.414Z,6.22
2023-10-18T09:37:12.787Z,6.32
2023-10-18T09:39:44.763Z,6.30
2023-10-18T09:42:17.427Z,7.38
2023-10-18T09:44:52.623Z,8.55
2023-10-18T09:47:25.632Z,8.43
2023-10-18T09:49:59.921Z,7.68
2023-10-18T09:52:33.847Z,8.23
2023-10-18T09:55:09.626Z,6.10
2023-10-18T09:57:49.678Z,6.80
2023-10-18T10:00:24.761Z,8.30
2023-10-18T10:02:58.077Z,7.05
2023-10-18T10:05:30.038Z,6.97
2023-10-18T10:08:03.071Z,7.38
2023-10-18T10:10:46.936Z,8.00
2023-10-18T10:13:26.780Z,7.60
2023-10-18T10:16:10.672Z,6.25
2023-10-18T10:18:49.087Z,8.48
2023-10-18T10:21:26.230Z,8.45
2023-10-18T10:24:08.035Z,5.75
2023-10-18T10:26:43.851Z,7.38
2023-10-18T10:29:31.764Z,6.15
2023-10-18T10:32:08.732Z,7.25
2023-10-18T10:34:42.908Z,5.15
2023-10-18T10:37:20.914Z,7.93
2023-10-18T10:40:13.885Z,6.10
2023-10-18T10:42:50.872Z,6.40
2023-10-18T10:45:36.822Z,7.57
2023-10-18T10:48:47.130Z,5.88
2023-10-18T10:51:22.530Z,7.22
2023-10-18T10:53:59.321Z,6.82
2023-10-18T10:56:51.147Z,5.95
2023-10-18T10:59:23.647Z,5.20
2023-10-18T11:02:17.701Z,7.18
2023-10-18T11:04:51.612Z,8.32
2023-10-18T11:07:26.345Z,6.25
2023-10-18T11:10:08.083Z,7.03
2023-10-18T11:12:39.280Z,7.30
2023-10-18T11:15:18.049Z,5.78
2023-10-18T11:17:50.119Z,7.22
2023-10-18T11:20:31.425Z,7.07
2023-10-18T11:23:04.706Z,8.48
2023-10-18T11:25:35.269Z,5.80
2023-10-18T11:28:23.036Z,7.10
2023-10-18T11:30:55.311Z,8.45
2023-10-18T11:33:48.143Z,17.52
2023-10-18T11:36:22.443Z,9.45
2023-10-18T11:39:05.801Z,8.90
2023-10-18T11:41:38.743Z,5.00
2023-10-18T11:44:19.929Z,6.10
2023-10-18T11:46:55.249Z,8.43
2023-10-18T11:49:31.295Z,6.25
2023-10-18T11:52:04.613Z,7.63
2023-10-18T11:54:37.320Z,7.07
2023-10-18T11:57:27.781Z,6.05
2023-10-18T12:00:21.028Z,5.97
2023-10-18T12:02:51.493Z,5.57
2023-10-18T12:05:25.307Z,4.55
2023-10-18T12:08:03.122Z,5.85
2023-10-18T12:10:38.208Z,5.40
2023-10-18T12:13:13.676Z,7.05
2023-10-18T12:15:45.498Z,10.32
2023-10-18T12:18:15.807Z,7.57
2023-10-18T12:20:47.550Z,6.00
2023-10-18T12:23:22.592Z,4.40
2023-10-18T12:25:53.360Z,7.05
2023-10-18T12:28:29.406Z,7.57
2023-10-18T12:31:02.917Z,6.07
2023-10-18T12:33:34.624Z,5.43
2023-10-18T12:36:08.774Z,5.35
2023-10-18T12:38:44.653Z,4.85
2023-10-18T12:41:32.817Z,4.70
2023-10-18T12:44:04.356Z,7.07
2023-10-18T12:46:36.560Z,4.75
2023-10-18T12:49:12.074Z,6.53
2023-10-18T12:51:44.324Z,7.90
2023-10-18T12:54:30.973Z,5.97
2023-10-18T12:56:59.886Z,5.15
2023-10-18T12:59:39.327Z,5.07
2023-10-18T13:02:12.098Z,6.60
2023-10-18T13:04:42.535Z,4.70
2023-10-18T13:07:29.758Z,4.50
2023-10-18T13:10:04.723Z,6.15
2023-10-18T13:12:39.472Z,4.85
2023-10-18T13:15:25.198Z,3.85
2023-10-18T13:17:56.244Z,5.82
2023-10-18T13:20:36.328Z,4.68
2023-10-18T13:23:09.911Z,7.47
2023-10-18T13:25:53.239Z,6.75
2023-10-18T13:28:34.987Z,4.50
2023-10-18T13:31:11.354Z,7.55
2023-10-18T13:33:41.731Z,4.70
2023-10-18T13:36:15.537Z,7.50
2023-10-18T13:38:45.778Z,4.85
2023-10-18T13:41:18.800Z,8.18
2023-10-18T13:43:49.665Z,7.78
2023-10-18T13:46:25.045Z,4.78
2023-10-18T13:48:55.389Z,5.10
2023-10-18T13:51:25.710Z,5.05
2023-10-18T13:53:56.255Z,4.88
2023-10-18T13:56:30.868Z,5.55
2023-10-18T13:59:02.969Z,5.57
2023-10-18T14:01:40.634Z,6.35
2023-10-18T14:04:14.888Z,5.43
2023-10-18T14:06:54.327Z,9.07
2023-10-18T14:09:27.193Z,5.97
2023-10-18T14:12:02.348Z,4.90
2023-10-18T14:14:38.090Z,4.43
2023-10-18T14:17:15.189Z,7.97
2023-10-18T14:19:49.846Z,9.48
2023-10-18T14:22:26.063Z,5.43
2023-10-18T14:24:56.312Z,6.28
2023-10-18T14:27:30.353Z,5.63
2023-10-18T14:30:01.839Z,3.28
2023-10-18T14:32:32.575Z,6.78
2023-10-18T14:35:03.075Z,5.28
2023-10-18T14:37:34.194Z,5.72
2023-10-18T14:40:08.883Z,5.28
2023-10-18T14:42:41.892Z,4.13
2023-10-18T14:45:16.284Z,5.97
2023-10-18T14:47:46.949Z,3.38
2023-10-18T14:50:20.779Z,4.38
2023-10-18T14:52:51.141Z,6.80
2023-10-18T14:55:23.833Z,4.22
2023-10-18T14:57:56.897Z,4.65
2023-10-18T15:00:27.126Z,4.93
2023-10-18T15:02:57.673Z,5.75
2023-10-18T15:05:28.521Z,3.85
2023-10-18T15:07:59.928Z,5.22
2023-10-18T15:10:31.200Z,5.88
2023-10-18T15:13:06.563Z,3.70
2023-10-18T15:15:39.583Z,3.92
2023-10-18T15:18:10.287Z,3.75
2023-10-18T15:20:45.651Z,3.83
2023-10-18T15:23:15.984Z,4.50
2023-10-18T15:25:48.821Z,5.55
2023-10-18T15:28:24.163Z,6.35
2023-10-18T15:30:54.406Z,3.22
2023-10-18T15:33:25.011Z,4.45
2023-10-18T15:35:55.871Z,4.57
2023-10-18T15:38:26.328Z,6.22
2023-10-18T15:40:56.691Z,4.22
2023-10-18T15:43:32.056Z,6.63
2023-10-18T15:46:02.587Z,6.95
2023-10-18T15:48:32.978Z,3.78
2023-10-18T15:51:03.251Z,4.20
2023-10-18T15:53:38.881Z,7.53
2023-10-18T15:56:16.149Z,6.50
2023-10-18T15:58:56.556Z,3.40
2023-10-18T16:01:33.409Z,4.93
2023-10-18T16:04:10.973Z,4.00
2023-10-18T16:06:41.700Z,4.60
2023-10-18T16:09:12.395Z,5.15
2023-10-18T16:11:47.007Z,4.03
2023-10-18T16:14:20.184Z,4.68
2023-10-18T16:16:53.083Z,4.47
2023-10-18T16:19:23.456Z,4.63
2023-10-18T16:21:54.597Z,5.18
2023-10-18T16:24:24.876Z,4.53
2023-10-18T16:26:55.111Z,6.30
2023-10-18T16:29:28.099Z,6.20
2023-10-18T16:32:00.347Z,5.25
2023-10-18T16:34:33.223Z,5.53
2023-10-18T16:37:03.831Z,7.57
2023-10-18T16:39:36.032Z,5.82
2023-10-18T16:42:06.514Z,3.92
2023-10-18T16:44:42.252Z,6.65
2023-10-18T16:47:14.297Z,5.07
2023-10-18T16:49:47.296Z,4.13
2023-10-18T16:52:19.338Z,4.68
2023-10-18T16:54:54.124Z,3.35
2023-10-18T16:57:24.402Z,4.10
2023-10-18T16:59:57.375Z,8.15
2023-10-18T17:02:29.118Z,4.50
2023-10-18T17:05:01.427Z,4.15
2023-10-18T17:07:31.672Z,5.72
2023-10-18T17:10:01.994Z,6.00
2023-10-18T17:12:32.270Z,3.55
2023-10-18T17:15:05.708Z,8.30
2023-10-18T17:17:36.155Z,4.57
2023-10-18T17:20:08.243Z,4.03
2023-10-18T17:22:39.012Z,3.45
2023-10-18T17:25:15.575Z,8.30
2023-10-18T17:27:46.895Z,4.93
2023-10-18T17:30:21.982Z,6.63
2023-10-18T17:32:56.074Z,6.20
2023-10-18T17:38:02.488Z,7.10
2023-10-18T17:40:35.033Z,4.72
2023-10-18T17:43:06.334Z,8.55
2023-10-18T17:45:39.564Z,6.13
2023-10-18T17:48:12.075Z,6.13
2023-10-18T17:50:42.403Z,5.18
2023-10-18T17:53:14.755Z,4.45
2023-10-18T17:55:48.240Z,4.43
2023-10-18T17:58:18.873Z,5.20
2023-10-18T18:00:56.195Z,4.90
2023-10-18T18:03:31.720Z,4.47
2023-10-18T18:06:08.729Z,6.00
2023-10-18T18:08:39.909Z,7.07
2023-10-18T18:11:10.308Z,7.53
2023-10-18T18:13:48.975Z,4.10
2023-10-18T18:16:22.963Z,5.60
2023-10-18T18:18:55.487Z,5.63
2023-10-18T18:21:28.397Z,6.97
2023-10-18T18:24:02.205Z,6.07
2023-10-18T18:26:36.040Z,6.32
2023-10-18T18:29:07.099Z,6.82
2023-10-18T18:31:39.958Z,5.18
2023-10-18T18:34:11.652Z,7.03
2023-10-18T18:36:43.454Z,4.93
2023-10-18T18:39:13.818Z,5.22
2023-10-18T18:41:47.032Z,4.20
2023-10-18T18:44:18.342Z,4.72
2023-10-18T18:46:54.660Z,5.38
2023-10-18T18:49:24.989Z,5.05
2023-10-18T18:51:55.363Z,8.00
2023-10-18T18:54:25.646Z,5.18
2023-10-18T18:56:56.191Z,5.15
2023-10-18T18:59:26.585Z,4.57
2023-10-18T19:01:59.428Z,5.30
2023-10-18T19:04:30.202Z,4.63
2023-10-18T19:07:03.370Z,3.90
2023-10-18T19:09:33.674Z,4.60
2023-10-18T19:12:04.819Z,7.05
2023-10-18T19:14:35.082Z,6.25
2023-10-18T19:17:07.967Z,4.20
2023-10-18T19:19:39.582Z,4.95
2023-10-18T19:22:12.046Z,5.88
2023-10-18T19:24:43.353Z,4.82
2023-10-18T19:27:13.734Z,5.40
2023-10-18T19:29:44.008Z,4.93
2023-10-18T19:32:19.206Z,6.15
2023-10-18T19:34:49.544Z,5.25
2023-10-18T19:37:20.922Z,6.00
2023-10-18T19:39:51.289Z,7.75
2023-10-18T19:42:23.754Z,9.25
2023-10-18T19:44:54.227Z,8.87
2023-10-18T19:47:29.567Z,7.70
2023-10-18T19:50:00.311Z,6.63
2023-10-18T19:52:30.970Z,7.40
2023-10-18T19:55:01.390Z,8.02
2023-10-18T19:57:32.457Z,8.45
2023-10-18T20:00:02.727Z,6.90
2023-10-18T20:02:35.832Z,8.17
2023-10-18T20:05:07.334Z,6.93
2023-10-18T20:07:37.663Z,9.23
2023-10-18T20:10:12.433Z,7.97
2023-10-18T20:12:45.190Z,8.37
2023-10-18T20:15:16.789Z,8.67
2023-10-18T20:17:49.730Z,11.37
2023-10-18T20:20:20.955Z,7.53
2023-10-18T20:22:51.275Z,8.57
2023-10-18T20:25:22.396Z,9.53
2023-10-18T20:27:52.677Z,9.47
2023-10-18T20:30:22.950Z,8.73
2023-10-18T20:32:55.843Z,9.00
2023-10-18T20:35:26.860Z,10.93
2023-10-18T20:37:57.216Z,11.93
2023-10-18T20:40:27.470Z,11.47
2023-10-18T20:42:57.723Z,10.27
2023-10-18T20:45:35.701Z,11.63
2023-10-18T20:48:12.546Z,9.73
2023-10-18T20:50:45.894Z,11.57
2023-10-18T20:53:18.815Z,10.83
2023-10-18T20:55:49.293Z,14.20
2023-10-18T20:58:22.995Z,17.20
2023-10-18T21:00:56.352Z,15.13
2023-10-18T21:03:33.657Z,11.73
2023-10-18T21:06:12.905Z,11.57
2023-10-18T21:08:45.635Z,12.30
2023-10-18T21:11:18.535Z,12.23
2023-10-18T21:13:49.014Z,11.27
2023-10-18T21:16:20.005Z,12.13
2023-10-18T21:18:53.176Z,15.03
2023-10-18T21:21:24.194Z,14.63
2023-10-18T21:23:54.924Z,13.23
2023-10-18T21:26:25.271Z,13.03
2023-10-18T21:28:56.249Z,12.47
2023-10-18T21:31:27.297Z,12.40
2023-10-18T21:34:00.158Z,13.27
2023-10-18T21:36:30.557Z,12.93
2023-10-18T21:39:00.773Z,12.60
2023-10-18T21:41:31.021Z,12.53
2023-10-18T21:44:01.233Z,13.80
2023-10-18T21:46:31.866Z,13.67
2023-10-18T21:49:04.815Z,14.47
2023-10-18T21:51:38.109Z,14.17
2023-10-18T21:54:08.987Z,15.57
2023-10-18T21:56:39.654Z,15.67
2023-10-18T21:59:12.512Z,14.40
2023-10-18T22:01:50.898Z,13.97
2023-10-18T22:04:23.852Z,16.37
2023-10-18T22:06:56.856Z,17.90
2023-10-18T22:09:36.381Z,15.33
2023-10-18T22:12:08.302Z,17.40
2023-10-18T22:14:44.369Z,17.80
2023-10-18T22:17:22.929Z,17.23
2023-10-18T22:19:58.870Z,17.83
2023-10-18T22:22:30.616Z,18.33
2023-10-18T22:25:00.977Z,18.07
2023-10-18T22:27:31.230Z,19.03
2023-10-18T22:30:09.089Z,18.87
2023-10-18T22:32:39.532Z,17.87
2023-10-18T22:35:12.814Z,19.10
2023-10-18T22:37:43.062Z,18.70
2023-10-18T22:40:14.235Z,19.40
2023-10-18T22:42:46.249Z,17.30
2023-10-18T22:45:26.011Z,18.57
2023-10-18T22:48:00.337Z,20.13
2023-10-18T22:50:39.914Z,17.93
2023-10-18T22:53:19.534Z,19.33
2023-10-18T22:55:58.215Z,18.07
2023-10-18T22:58:31.086Z,18.73
2023-10-18T23:01:02.672Z,18.23
2023-10-18T23:03:33.533Z,19.50
2023-10-18T23:06:09.875Z,19.33
2023-10-18T23:08:42.251Z,21.20
2023-10-18T23:11:22.247Z,20.37
2023-10-18T23:13:52.830Z,18.07
2023-10-18T23:16:39.577Z,18.37
2023-10-18T23:19:33.688Z,20.97
2023-10-18T23:25:33.305Z,20.23
2023-10-18T23:28:20.222Z,21.53
2023-10-18T23:31:08.836Z,17.95
2023-10-18T23:33:46.433Z,19.57
2023-10-18T23:36:26.250Z,17.23
2023-10-18T23:39:09.514Z,21.17
2023-10-18T23:42:05.557Z,20.10
2023-10-18T23:44:51.942Z,20.13
2023-10-18T23:47:31.344Z,22.13
2023-10-18T23:50:02.180Z,20.80
2023-10-18T23:52:39.397Z,20.60
2023-10-18T23:55:14.870Z,18.53
2023-10-18T23:57:48.139Z,19.80
